sensor_id;sensor_type;location;lat;lon;timestamp;temperature;humidity
11320;DHT22;5715;48.234;14.320;2023-01-24T00:02:22;2.20;99.90
11320;DHT22;5715;48.234;14.320;2023-01-24T00:05:09;2.20;99.90
11320;DHT22;5715;48.234;14.320;2023-01-24T00:07:57;2.20;99.90
11320;DHT22;5715;48.234;14.320;2023-01-24T00:10:45;2.20;99.90
11320;DHT22;5715;48.234;14.320;2023-01-24T00:13:34;2.30;99.90
11320;DHT22;5715;48.234;14.320;2023-01-24T00:16:22;2.30;99.90
11320;DHT22;5715;48.234;14.320;2023-01-24T00:19:10;2.30;99.90
11320;DHT22;5715;48.234;14.320;2023-01-24T00:21:58;2.40;99.90
11320;DHT22;5715;48.234;14.320;2023-01-24T00:24:45;2.40;99.90
11320;DHT22;5715;48.234;14.320;2023-01-24T00:27:34;2.40;99.90
11320;DHT22;5715;48.234;14.320;2023-01-24T00:30:22;2.40;99.90
11320;DHT22;5715;48.234;14.320;2023-01-24T00:33:09;2.40;99.90
11320;DHT22;5715;48.234;14.320;2023-01-24T00:35:59;2.40;99.90
11320;DHT22;5715;48.234;14.320;2023-01-24T00:38:46;2.40;99.90
11320;DHT22;5715;48.234;14.320;2023-01-24T00:41:34;2.40;99.90
11320;DHT22;5715;48.234;14.320;2023-01-24T00:44:22;2.40;99.90
11320;DHT22;5715;48.234;14.320;2023-01-24T00:47:10;2.40;99.90
11320;DHT22;5715;48.234;14.320;2023-01-24T00:49:57;2.40;99.90
11320;DHT22;5715;48.234;14.320;2023-01-24T00:52:45;2.50;99.90
11320;DHT22;5715;48.234;14.320;2023-01-24T00:55:33;2.40;99.90
11320;DHT22;5715;48.234;14.320;2023-01-24T00:58:22;2.50;99.90
11320;DHT22;5715;48.234;14.320;2023-01-24T01:01:10;2.40;99.90
11320;DHT22;5715;48.234;14.320;2023-01-24T01:03:58;2.40;99.90
11320;DHT22;5715;48.234;14.320;2023-01-24T01:06:45;2.40;99.90
11320;DHT22;5715;48.234;14.320;2023-01-24T01:09:33;2.40;99.90
11320;DHT22;5715;48.234;14.320;2023-01-24T01:12:21;2.50;99.90
11320;DHT22;5715;48.234;14.320;2023-01-24T01:15:09;2.50;99.90
11320;DHT22;5715;48.234;14.320;2023-01-24T01:17:58;2.50;99.90
11320;DHT22;5715;48.234;14.320;2023-01-24T01:20:49;2.50;99.90
11320;DHT22;5715;48.234;14.320;2023-01-24T01:23:38;2.40;99.90
11320;DHT22;5715;48.234;14.320;2023-01-24T01:26:25;2.50;99.90
11320;DHT22;5715;48.234;14.320;2023-01-24T01:29:13;2.50;99.90
11320;DHT22;5715;48.234;14.320;2023-01-24T01:32:01;2.50;99.90
11320;DHT22;5715;48.234;14.320;2023-01-24T01:34:50;2.50;99.90
11320;DHT22;5715;48.234;14.320;2023-01-24T01:37:37;2.50;99.90
11320;DHT22;5715;48.234;14.320;2023-01-24T01:40:25;2.50;99.90
11320;DHT22;5715;48.234;14.320;2023-01-24T01:43:16;2.50;99.90
11320;DHT22;5715;48.234;14.320;2023-01-24T01:46:20;2.50;99.90
11320;DHT22;5715;48.234;14.320;2023-01-24T01:49:19;2.50;99.90
11320;DHT22;5715;48.234;14.320;2023-01-24T01:52:12;2.50;99.90
11320;DHT22;5715;48.234;14.320;2023-01-24T01:55:04;2.50;99.90
11320;DHT22;5715;48.234;14.320;2023-01-24T01:57:55;2.60;99.90
11320;DHT22;5715;48.234;14.320;2023-01-24T02:00:43;2.60;99.90
11320;DHT22;5715;48.234;14.320;2023-01-24T02:03:43;2.50;99.90
11320;DHT22;5715;48.234;14.320;2023-01-24T02:09:54;2.50;99.90
11320;DHT22;5715;48.234;14.320;2023-01-24T02:12:45;2.50;99.90
11320;DHT22;5715;48.234;14.320;2023-01-24T02:15:35;2.50;99.90
11320;DHT22;5715;48.234;14.320;2023-01-24T02:18:42;2.50;99.90
11320;DHT22;5715;48.234;14.320;2023-01-24T02:21:31;2.50;99.90
11320;DHT22;5715;48.234;14.320;2023-01-24T02:24:33;2.60;99.90
11320;DHT22;5715;48.234;14.320;2023-01-24T02:27:30;2.60;99.90
11320;DHT22;5715;48.234;14.320;2023-01-24T02:30:18;2.60;99.90
11320;DHT22;5715;48.234;14.320;2023-01-24T02:33:23;2.60;99.90
11320;DHT22;5715;48.234;14.320;2023-01-24T02:36:34;2.60;99.90
11320;DHT22;5715;48.234;14.320;2023-01-24T02:39:53;2.50;99.90
11320;DHT22;5715;48.234;14.320;2023-01-24T02:42:45;2.60;99.90
11320;DHT22;5715;48.234;14.320;2023-01-24T02:45:34;2.60;99.90
11320;DHT22;5715;48.234;14.320;2023-01-24T02:48:22;2.80;99.90
11320;DHT22;5715;48.234;14.320;2023-01-24T02:51:10;2.60;99.90
11320;DHT22;5715;48.234;14.320;2023-01-24T02:54:16;2.60;99.90
11320;DHT22;5715;48.234;14.320;2023-01-24T02:57:04;2.60;99.90
11320;DHT22;5715;48.234;14.320;2023-01-24T03:00:11;2.60;99.90
11320;DHT22;5715;48.234;14.320;2023-01-24T03:03:00;2.50;99.90
11320;DHT22;5715;48.234;14.320;2023-01-24T03:05:47;2.60;99.90
11320;DHT22;5715;48.234;14.320;2023-01-24T03:08:45;2.60;99.90
11320;DHT22;5715;48.234;14.320;2023-01-24T03:11:33;2.60;99.90
11320;DHT22;5715;48.234;14.320;2023-01-24T03:14:21;2.60;99.90
11320;DHT22;5715;48.234;14.320;2023-01-24T03:17:27;2.50;99.90
11320;DHT22;5715;48.234;14.320;2023-01-24T03:20:33;2.60;99.90
11320;DHT22;5715;48.234;14.320;2023-01-24T03:23:39;2.60;99.90
11320;DHT22;5715;48.234;14.320;2023-01-24T03:26:46;2.50;99.90
11320;DHT22;5715;48.234;14.320;2023-01-24T03:29:52;2.50;99.90
11320;DHT22;5715;48.234;14.320;2023-01-24T03:33:00;2.50;99.90
11320;DHT22;5715;48.234;14.320;2023-01-24T03:36:08;2.50;99.90
11320;DHT22;5715;48.234;14.320;2023-01-24T03:39:00;2.50;99.90
11320;DHT22;5715;48.234;14.320;2023-01-24T03:42:06;2.50;99.90
11320;DHT22;5715;48.234;14.320;2023-01-24T03:44:54;2.50;99.90
11320;DHT22;5715;48.234;14.320;2023-01-24T03:47:45;2.50;99.90
11320;DHT22;5715;48.234;14.320;2023-01-24T03:50:53;2.50;99.90
11320;DHT22;5715;48.234;14.320;2023-01-24T03:53:59;2.60;99.90
11320;DHT22;5715;48.234;14.320;2023-01-24T03:56:47;2.60;99.90
11320;DHT22;5715;48.234;14.320;2023-01-24T03:59:36;2.60;99.90
11320;DHT22;5715;48.234;14.320;2023-01-24T04:02:24;2.60;99.90
11320;DHT22;5715;48.234;14.320;2023-01-24T04:05:11;2.50;99.90
11320;DHT22;5715;48.234;14.320;2023-01-24T04:07:59;2.60;99.90
11320;DHT22;5715;48.234;14.320;2023-01-24T04:10:47;2.60;99.90
11320;DHT22;5715;48.234;14.320;2023-01-24T04:13:34;2.60;99.90
11320;DHT22;5715;48.234;14.320;2023-01-24T04:16:22;2.60;99.90
11320;DHT22;5715;48.234;14.320;2023-01-24T04:19:10;2.60;99.90
11320;DHT22;5715;48.234;14.320;2023-01-24T04:21:57;2.60;99.90
11320;DHT22;5715;48.234;14.320;2023-01-24T04:24:45;2.60;99.90
11320;DHT22;5715;48.234;14.320;2023-01-24T04:27:33;2.60;99.90
11320;DHT22;5715;48.234;14.320;2023-01-24T04:30:21;2.70;99.90
11320;DHT22;5715;48.234;14.320;2023-01-24T04:33:08;2.60;99.90
11320;DHT22;5715;48.234;14.320;2023-01-24T04:35:57;2.60;99.90
11320;DHT22;5715;48.234;14.320;2023-01-24T04:38:45;2.70;99.90
11320;DHT22;5715;48.234;14.320;2023-01-24T04:41:33;2.70;99.90
11320;DHT22;5715;48.234;14.320;2023-01-24T04:44:21;2.70;99.90
11320;DHT22;5715;48.234;14.320;2023-01-24T04:47:08;2.70;99.90
11320;DHT22;5715;48.234;14.320;2023-01-24T04:49:56;2.70;99.90
11320;DHT22;5715;48.234;14.320;2023-01-24T04:52:44;2.70;99.90
11320;DHT22;5715;48.234;14.320;2023-01-24T04:55:32;2.70;99.90
11320;DHT22;5715;48.234;14.320;2023-01-24T04:58:21;2.70;99.90
11320;DHT22;5715;48.234;14.320;2023-01-24T05:01:09;2.70;99.90
11320;DHT22;5715;48.234;14.320;2023-01-24T05:03:57;2.70;99.90
11320;DHT22;5715;48.234;14.320;2023-01-24T05:06:47;2.70;99.90
11320;DHT22;5715;48.234;14.320;2023-01-24T05:09:35;2.70;99.90
11320;DHT22;5715;48.234;14.320;2023-01-24T05:12:23;2.70;99.90
11320;DHT22;5715;48.234;14.320;2023-01-24T05:15:10;2.70;99.90
11320;DHT22;5715;48.234;14.320;2023-01-24T05:17:58;2.70;99.90
11320;DHT22;5715;48.234;14.320;2023-01-24T05:20:46;2.70;99.90
11320;DHT22;5715;48.234;14.320;2023-01-24T05:23:34;2.70;99.90
11320;DHT22;5715;48.234;14.320;2023-01-24T05:26:24;2.70;99.90
11320;DHT22;5715;48.234;14.320;2023-01-24T05:29:12;2.70;99.90
11320;DHT22;5715;48.234;14.320;2023-01-24T05:32:00;2.70;99.90
11320;DHT22;5715;48.234;14.320;2023-01-24T05:34:48;2.70;99.90
11320;DHT22;5715;48.234;14.320;2023-01-24T05:37:37;2.70;99.90
11320;DHT22;5715;48.234;14.320;2023-01-24T05:40:25;2.70;99.90
11320;DHT22;5715;48.234;14.320;2023-01-24T05:43:12;2.70;99.90
11320;DHT22;5715;48.234;14.320;2023-01-24T05:46:01;2.70;99.90
11320;DHT22;5715;48.234;14.320;2023-01-24T05:48:51;2.70;99.90
11320;DHT22;5715;48.234;14.320;2023-01-24T05:51:38;2.70;99.90
11320;DHT22;5715;48.234;14.320;2023-01-24T05:54:26;2.60;99.90
11320;DHT22;5715;48.234;14.320;2023-01-24T05:57:14;2.60;99.90
11320;DHT22;5715;48.234;14.320;2023-01-24T06:00:04;2.60;99.90
11320;DHT22;5715;48.234;14.320;2023-01-24T06:02:52;2.60;99.90
11320;DHT22;5715;48.234;14.320;2023-01-24T06:05:46;2.60;99.90
11320;DHT22;5715;48.234;14.320;2023-01-24T06:08:39;2.60;99.90
11320;DHT22;5715;48.234;14.320;2023-01-24T06:11:28;2.60;99.90
11320;DHT22;5715;48.234;14.320;2023-01-24T06:14:17;2.60;99.90
11320;DHT22;5715;48.234;14.320;2023-01-24T06:17:05;2.60;99.90
11320;DHT22;5715;48.234;14.320;2023-01-24T06:19:53;2.60;99.90
11320;DHT22;5715;48.234;14.320;2023-01-24T06:22:45;2.70;99.90
11320;DHT22;5715;48.234;14.320;2023-01-24T06:25:38;2.70;99.90
11320;DHT22;5715;48.234;14.320;2023-01-24T06:28:26;2.70;99.90
11320;DHT22;5715;48.234;14.320;2023-01-24T06:35:14;2.70;99.90
11320;DHT22;5715;48.234;14.320;2023-01-24T06:38:23;2.60;99.90
11320;DHT22;5715;48.234;14.320;2023-01-24T06:41:16;2.70;99.90
11320;DHT22;5715;48.234;14.320;2023-01-24T06:44:05;2.60;99.90
11320;DHT22;5715;48.234;14.320;2023-01-24T06:46:54;2.70;99.90
11320;DHT22;5715;48.234;14.320;2023-01-24T06:49:42;2.70;99.90
11320;DHT22;5715;48.234;14.320;2023-01-24T06:52:30;2.70;99.90
11320;DHT22;5715;48.234;14.320;2023-01-24T06:55:17;2.70;99.90
11320;DHT22;5715;48.234;14.320;2023-01-24T06:58:05;2.70;99.90
11320;DHT22;5715;48.234;14.320;2023-01-24T07:00:53;2.70;99.90
11320;DHT22;5715;48.234;14.320;2023-01-24T07:03:41;2.70;99.90
11320;DHT22;5715;48.234;14.320;2023-01-24T07:06:28;2.70;99.90
11320;DHT22;5715;48.234;14.320;2023-01-24T07:09:16;2.70;99.90
11320;DHT22;5715;48.234;14.320;2023-01-24T07:12:04;2.70;99.90
11320;DHT22;5715;48.234;14.320;2023-01-24T07:14:52;2.70;99.90
11320;DHT22;5715;48.234;14.320;2023-01-24T07:17:40;2.70;99.90
11320;DHT22;5715;48.234;14.320;2023-01-24T07:20:28;2.70;99.90
11320;DHT22;5715;48.234;14.320;2023-01-24T07:23:20;2.70;99.90
11320;DHT22;5715;48.234;14.320;2023-01-24T07:26:11;2.70;99.90
11320;DHT22;5715;48.234;14.320;2023-01-24T07:28:59;2.70;99.90
11320;DHT22;5715;48.234;14.320;2023-01-24T07:31:47;2.70;99.90
11320;DHT22;5715;48.234;14.320;2023-01-24T07:34:35;2.70;99.90
11320;DHT22;5715;48.234;14.320;2023-01-24T07:37:23;2.70;99.90
11320;DHT22;5715;48.234;14.320;2023-01-24T07:40:11;2.70;99.90
11320;DHT22;5715;48.234;14.320;2023-01-24T07:42:59;2.70;99.90
11320;DHT22;5715;48.234;14.320;2023-01-24T07:45:48;2.80;99.90
11320;DHT22;5715;48.234;14.320;2023-01-24T07:48:38;2.80;99.90
11320;DHT22;5715;48.234;14.320;2023-01-24T07:51:27;2.80;99.90
11320;DHT22;5715;48.234;14.320;2023-01-24T07:54:15;2.80;99.90
11320;DHT22;5715;48.234;14.320;2023-01-24T07:57:05;2.80;99.90
11320;DHT22;5715;48.234;14.320;2023-01-24T07:59:55;2.80;99.90
11320;DHT22;5715;48.234;14.320;2023-01-24T08:02:43;2.80;99.90
11320;DHT22;5715;48.234;14.320;2023-01-24T08:05:31;2.80;99.90
11320;DHT22;5715;48.234;14.320;2023-01-24T08:08:19;2.80;99.90
11320;DHT22;5715;48.234;14.320;2023-01-24T08:11:07;2.80;99.90
11320;DHT22;5715;48.234;14.320;2023-01-24T08:13:58;2.80;99.90
11320;DHT22;5715;48.234;14.320;2023-01-24T08:16:45;2.80;99.90
11320;DHT22;5715;48.234;14.320;2023-01-24T08:19:33;2.80;99.90
11320;DHT22;5715;48.234;14.320;2023-01-24T08:22:42;2.80;99.90
11320;DHT22;5715;48.234;14.320;2023-01-24T08:25:43;2.90;99.90
11320;DHT22;5715;48.234;14.320;2023-01-24T08:28:32;2.90;99.90
11320;DHT22;5715;48.234;14.320;2023-01-24T08:31:20;2.90;99.90
11320;DHT22;5715;48.234;14.320;2023-01-24T08:34:09;2.90;99.90
11320;DHT22;5715;48.234;14.320;2023-01-24T08:36:57;2.90;99.90
11320;DHT22;5715;48.234;14.320;2023-01-24T08:39:46;2.90;99.90
11320;DHT22;5715;48.234;14.320;2023-01-24T08:42:35;3.00;99.90
11320;DHT22;5715;48.234;14.320;2023-01-24T08:45:23;3.00;99.90
11320;DHT22;5715;48.234;14.320;2023-01-24T08:48:11;3.00;99.90
11320;DHT22;5715;48.234;14.320;2023-01-24T08:51:02;3.00;99.90
11320;DHT22;5715;48.234;14.320;2023-01-24T08:53:51;3.00;99.90
11320;DHT22;5715;48.234;14.320;2023-01-24T08:56:39;3.00;99.90
11320;DHT22;5715;48.234;14.320;2023-01-24T08:59:27;3.00;99.90
11320;DHT22;5715;48.234;14.320;2023-01-24T09:02:15;3.00;99.90
11320;DHT22;5715;48.234;14.320;2023-01-24T09:05:07;3.00;99.90
11320;DHT22;5715;48.234;14.320;2023-01-24T09:07:55;2.90;99.90
11320;DHT22;5715;48.234;14.320;2023-01-24T09:10:44;3.00;99.90
11320;DHT22;5715;48.234;14.320;2023-01-24T09:13:31;3.00;99.90
11320;DHT22;5715;48.234;14.320;2023-01-24T09:16:19;2.90;99.90
11320;DHT22;5715;48.234;14.320;2023-01-24T09:19:07;3.00;99.90
11320;DHT22;5715;48.234;14.320;2023-01-24T09:21:55;3.00;99.90
11320;DHT22;5715;48.234;14.320;2023-01-24T09:24:44;3.00;99.90
11320;DHT22;5715;48.234;14.320;2023-01-24T09:27:31;3.00;99.90
11320;DHT22;5715;48.234;14.320;2023-01-24T09:30:19;3.00;99.90
11320;DHT22;5715;48.234;14.320;2023-01-24T09:33:08;3.00;99.90
11320;DHT22;5715;48.234;14.320;2023-01-24T09:35:58;3.00;99.90
11320;DHT22;5715;48.234;14.320;2023-01-24T09:38:48;3.10;99.90
11320;DHT22;5715;48.234;14.320;2023-01-24T09:48:04;3.20;99.90
11320;DHT22;5715;48.234;14.320;2023-01-24T09:51:01;3.20;99.90
11320;DHT22;5715;48.234;14.320;2023-01-24T09:53:55;3.20;99.90
11320;DHT22;5715;48.234;14.320;2023-01-24T09:56:47;3.20;99.90
11320;DHT22;5715;48.234;14.320;2023-01-24T09:59:44;3.20;99.90
11320;DHT22;5715;48.234;14.320;2023-01-24T10:02:40;3.30;99.90
11320;DHT22;5715;48.234;14.320;2023-01-24T10:05:40;3.30;99.90
11320;DHT22;5715;48.234;14.320;2023-01-24T10:08:44;3.30;99.90
11320;DHT22;5715;48.234;14.320;2023-01-24T10:12:01;3.30;99.90
11320;DHT22;5715;48.234;14.320;2023-01-24T10:21:38;3.40;99.90
11320;DHT22;5715;48.234;14.320;2023-01-24T10:24:32;3.50;99.90
11320;DHT22;5715;48.234;14.320;2023-01-24T10:27:38;3.50;99.90
11320;DHT22;5715;48.234;14.320;2023-01-24T10:31:00;3.50;99.90
11320;DHT22;5715;48.234;14.320;2023-01-24T10:33:58;3.50;99.90
11320;DHT22;5715;48.234;14.320;2023-01-24T10:37:27;3.50;99.90
11320;DHT22;5715;48.234;14.320;2023-01-24T10:40:19;3.50;99.90
11320;DHT22;5715;48.234;14.320;2023-01-24T10:43:07;3.50;99.90
11320;DHT22;5715;48.234;14.320;2023-01-24T10:49:00;3.40;99.90
11320;DHT22;5715;48.234;14.320;2023-01-24T10:52:15;3.50;99.90
11320;DHT22;5715;48.234;14.320;2023-01-24T10:55:28;3.50;99.90
11320;DHT22;5715;48.234;14.320;2023-01-24T10:58:27;3.50;99.90
11320;DHT22;5715;48.234;14.320;2023-01-24T11:01:18;3.50;99.90
11320;DHT22;5715;48.234;14.320;2023-01-24T11:04:21;3.50;99.90
11320;DHT22;5715;48.234;14.320;2023-01-24T11:07:28;3.50;99.90
11320;DHT22;5715;48.234;14.320;2023-01-24T11:10:34;3.50;99.90
11320;DHT22;5715;48.234;14.320;2023-01-24T11:19:05;3.60;99.90
11320;DHT22;5715;48.234;14.320;2023-01-24T11:22:24;3.60;99.90
11320;DHT22;5715;48.234;14.320;2023-01-24T11:25:14;3.60;99.90
11320;DHT22;5715;48.234;14.320;2023-01-24T11:28:02;3.50;99.90
11320;DHT22;5715;48.234;14.320;2023-01-24T11:30:50;3.60;99.90
11320;DHT22;5715;48.234;14.320;2023-01-24T11:40:36;3.80;99.90
11320;DHT22;5715;48.234;14.320;2023-01-24T11:47:18;3.80;99.90
11320;DHT22;5715;48.234;14.320;2023-01-24T12:03:45;4.00;99.90
11320;DHT22;5715;48.234;14.320;2023-01-24T12:07:19;4.00;99.90
11320;DHT22;5715;48.234;14.320;2023-01-24T12:13:37;4.00;99.90
11320;DHT22;5715;48.234;14.320;2023-01-24T12:21:08;4.10;99.90
11320;DHT22;5715;48.234;14.320;2023-01-24T12:24:03;4.20;99.90
11320;DHT22;5715;48.234;14.320;2023-01-24T12:27:02;4.20;99.90
11320;DHT22;5715;48.234;14.320;2023-01-24T12:33:29;4.10;99.90
11320;DHT22;5715;48.234;14.320;2023-01-24T12:36:56;4.10;99.90
11320;DHT22;5715;48.234;14.320;2023-01-24T12:43:49;4.00;99.90
11320;DHT22;5715;48.234;14.320;2023-01-24T12:46:45;4.10;99.90
11320;DHT22;5715;48.234;14.320;2023-01-24T12:50:03;4.00;99.90
11320;DHT22;5715;48.234;14.320;2023-01-24T12:59:43;4.00;99.90
11320;DHT22;5715;48.234;14.320;2023-01-24T13:11:57;4.10;99.90
11320;DHT22;5715;48.234;14.320;2023-01-24T13:14:58;4.10;99.90
11320;DHT22;5715;48.234;14.320;2023-01-24T13:18:12;4.00;99.90
11320;DHT22;5715;48.234;14.320;2023-01-24T13:21:50;4.10;99.90
11320;DHT22;5715;48.234;14.320;2023-01-24T13:34:30;4.20;99.90
11320;DHT22;5715;48.234;14.320;2023-01-24T13:37:24;4.20;99.90
11320;DHT22;5715;48.234;14.320;2023-01-24T13:40:21;4.20;99.90
11320;DHT22;5715;48.234;14.320;2023-01-24T13:49:38;4.10;99.90
11320;DHT22;5715;48.234;14.320;2023-01-24T13:58:19;4.00;99.90
11320;DHT22;5715;48.234;14.320;2023-01-24T14:01:15;4.00;99.90
11320;DHT22;5715;48.234;14.320;2023-01-24T14:04:05;4.00;99.90
11320;DHT22;5715;48.234;14.320;2023-01-24T14:06:53;4.00;99.90
11320;DHT22;5715;48.234;14.320;2023-01-24T14:09:42;4.00;99.90
11320;DHT22;5715;48.234;14.320;2023-01-24T14:12:37;4.00;99.90
11320;DHT22;5715;48.234;14.320;2023-01-24T14:15:29;3.90;99.90
11320;DHT22;5715;48.234;14.320;2023-01-24T14:18:48;3.90;99.90
11320;DHT22;5715;48.234;14.320;2023-01-24T14:24:56;3.80;99.90
11320;DHT22;5715;48.234;14.320;2023-01-24T14:27:58;3.80;99.90
11320;DHT22;5715;48.234;14.320;2023-01-24T14:31:00;3.80;99.90
11320;DHT22;5715;48.234;14.320;2023-01-24T14:37:11;3.70;99.90
11320;DHT22;5715;48.234;14.320;2023-01-24T14:40:29;3.70;99.90
11320;DHT22;5715;48.234;14.320;2023-01-24T14:43:19;3.70;99.90
11320;DHT22;5715;48.234;14.320;2023-01-24T14:46:21;3.70;99.90
11320;DHT22;5715;48.234;14.320;2023-01-24T14:49:14;3.70;99.90
11320;DHT22;5715;48.234;14.320;2023-01-24T14:52:24;3.70;99.90
11320;DHT22;5715;48.234;14.320;2023-01-24T14:58:24;3.60;99.90
11320;DHT22;5715;48.234;14.320;2023-01-24T15:01:30;3.60;99.90
11320;DHT22;5715;48.234;14.320;2023-01-24T15:04:24;3.60;99.90
11320;DHT22;5715;48.234;14.320;2023-01-24T15:07:15;3.60;99.90
11320;DHT22;5715;48.234;14.320;2023-01-24T15:10:12;3.50;99.90
11320;DHT22;5715;48.234;14.320;2023-01-24T15:13:03;3.50;99.90
11320;DHT22;5715;48.234;14.320;2023-01-24T15:15:55;3.50;99.90
11320;DHT22;5715;48.234;14.320;2023-01-24T15:18:46;3.50;99.90
11320;DHT22;5715;48.234;14.320;2023-01-24T15:21:44;3.40;99.90
11320;DHT22;5715;48.234;14.320;2023-01-24T15:24:33;3.40;99.90
11320;DHT22;5715;48.234;14.320;2023-01-24T15:30:34;3.40;99.90
11320;DHT22;5715;48.234;14.320;2023-01-24T15:33:22;3.40;99.90
11320;DHT22;5715;48.234;14.320;2023-01-24T15:36:27;3.40;99.90
11320;DHT22;5715;48.234;14.320;2023-01-24T15:39:21;3.40;99.90
11320;DHT22;5715;48.234;14.320;2023-01-24T15:42:16;3.40;99.90
11320;DHT22;5715;48.234;14.320;2023-01-24T15:45:24;3.30;99.90
11320;DHT22;5715;48.234;14.320;2023-01-24T15:48:22;3.30;99.90
11320;DHT22;5715;48.234;14.320;2023-01-24T15:51:27;3.30;99.90
11320;DHT22;5715;48.234;14.320;2023-01-24T15:54:18;3.30;99.90
11320;DHT22;5715;48.234;14.320;2023-01-24T15:57:20;3.30;99.90
11320;DHT22;5715;48.234;14.320;2023-01-24T16:00:30;3.30;99.90
11320;DHT22;5715;48.234;14.320;2023-01-24T16:03:17;3.30;99.90
11320;DHT22;5715;48.234;14.320;2023-01-24T16:06:08;3.30;99.90
11320;DHT22;5715;48.234;14.320;2023-01-24T16:08:56;3.30;99.90
11320;DHT22;5715;48.234;14.320;2023-01-24T16:11:45;3.30;99.90
11320;DHT22;5715;48.234;14.320;2023-01-24T16:14:35;3.30;99.90
11320;DHT22;5715;48.234;14.320;2023-01-24T16:17:25;3.20;99.90
11320;DHT22;5715;48.234;14.320;2023-01-24T16:20:21;3.20;99.90
11320;DHT22;5715;48.234;14.320;2023-01-24T16:23:14;3.20;99.90
11320;DHT22;5715;48.234;14.320;2023-01-24T16:26:01;3.10;99.90
11320;DHT22;5715;48.234;14.320;2023-01-24T16:28:50;3.20;99.90
11320;DHT22;5715;48.234;14.320;2023-01-24T16:31:38;3.10;99.90
11320;DHT22;5715;48.234;14.320;2023-01-24T16:34:26;3.10;99.90
11320;DHT22;5715;48.234;14.320;2023-01-24T16:37:14;3.10;99.90
11320;DHT22;5715;48.234;14.320;2023-01-24T16:40:05;3.10;99.90
11320;DHT22;5715;48.234;14.320;2023-01-24T16:42:56;3.00;99.90
11320;DHT22;5715;48.234;14.320;2023-01-24T16:45:48;3.10;99.90
11320;DHT22;5715;48.234;14.320;2023-01-24T16:48:37;3.10;99.90
11320;DHT22;5715;48.234;14.320;2023-01-24T16:51:25;3.00;99.90
11320;DHT22;5715;48.234;14.320;2023-01-24T16:54:14;3.00;99.90
11320;DHT22;5715;48.234;14.320;2023-01-24T16:57:02;3.00;99.90
11320;DHT22;5715;48.234;14.320;2023-01-24T16:59:50;2.90;99.90
11320;DHT22;5715;48.234;14.320;2023-01-24T17:02:39;2.90;99.90
11320;DHT22;5715;48.234;14.320;2023-01-24T17:05:29;3.00;99.90
11320;DHT22;5715;48.234;14.320;2023-01-24T17:08:17;3.10;99.90
11320;DHT22;5715;48.234;14.320;2023-01-24T17:11:06;3.10;99.90
11320;DHT22;5715;48.234;14.320;2023-01-24T17:13:57;3.10;99.90
11320;DHT22;5715;48.234;14.320;2023-01-24T17:16:47;3.10;99.90
11320;DHT22;5715;48.234;14.320;2023-01-24T17:19:35;3.10;99.90
11320;DHT22;5715;48.234;14.320;2023-01-24T17:22:24;3.10;99.90
11320;DHT22;5715;48.234;14.320;2023-01-24T17:25:11;3.10;99.90
11320;DHT22;5715;48.234;14.320;2023-01-24T17:27:59;3.10;99.90
11320;DHT22;5715;48.234;14.320;2023-01-24T17:30:47;3.20;99.90
11320;DHT22;5715;48.234;14.320;2023-01-24T17:33:35;3.10;99.90
11320;DHT22;5715;48.234;14.320;2023-01-24T17:36:23;3.10;99.90
11320;DHT22;5715;48.234;14.320;2023-01-24T17:39:11;3.10;99.90
11320;DHT22;5715;48.234;14.320;2023-01-24T17:41:59;3.10;99.90
11320;DHT22;5715;48.234;14.320;2023-01-24T17:44:46;3.10;99.90
11320;DHT22;5715;48.234;14.320;2023-01-24T17:47:34;3.10;99.90
11320;DHT22;5715;48.234;14.320;2023-01-24T17:50:21;3.10;99.90
11320;DHT22;5715;48.234;14.320;2023-01-24T17:53:12;3.10;99.90
11320;DHT22;5715;48.234;14.320;2023-01-24T17:55:59;3.10;99.90
11320;DHT22;5715;48.234;14.320;2023-01-24T17:58:47;3.10;99.90
11320;DHT22;5715;48.234;14.320;2023-01-24T18:01:35;3.10;99.90
11320;DHT22;5715;48.234;14.320;2023-01-24T18:04:23;3.10;99.90
11320;DHT22;5715;48.234;14.320;2023-01-24T18:07:10;3.00;99.90
11320;DHT22;5715;48.234;14.320;2023-01-24T18:09:58;3.00;99.90
11320;DHT22;5715;48.234;14.320;2023-01-24T18:12:46;3.00;99.90
11320;DHT22;5715;48.234;14.320;2023-01-24T18:15:34;3.10;99.90
11320;DHT22;5715;48.234;14.320;2023-01-24T18:18:22;3.00;99.90
11320;DHT22;5715;48.234;14.320;2023-01-24T18:21:12;3.10;99.90
11320;DHT22;5715;48.234;14.320;2023-01-24T18:24:04;3.10;99.90
11320;DHT22;5715;48.234;14.320;2023-01-24T18:26:53;3.10;99.90
11320;DHT22;5715;48.234;14.320;2023-01-24T18:29:40;3.10;99.90
11320;DHT22;5715;48.234;14.320;2023-01-24T18:32:28;3.10;99.90
11320;DHT22;5715;48.234;14.320;2023-01-24T18:35:16;3.00;99.90
11320;DHT22;5715;48.234;14.320;2023-01-24T18:38:03;3.00;99.90
11320;DHT22;5715;48.234;14.320;2023-01-24T18:40:51;3.00;99.90
11320;DHT22;5715;48.234;14.320;2023-01-24T18:43:39;3.00;99.90
11320;DHT22;5715;48.234;14.320;2023-01-24T18:46:27;3.00;99.90
11320;DHT22;5715;48.234;14.320;2023-01-24T18:49:15;3.00;99.90
11320;DHT22;5715;48.234;14.320;2023-01-24T18:52:02;3.00;99.90
11320;DHT22;5715;48.234;14.320;2023-01-24T18:54:50;3.00;99.90
11320;DHT22;5715;48.234;14.320;2023-01-24T18:57:38;3.00;99.90
11320;DHT22;5715;48.234;14.320;2023-01-24T19:00:26;3.00;99.90
11320;DHT22;5715;48.234;14.320;2023-01-24T19:03:13;3.00;99.90
11320;DHT22;5715;48.234;14.320;2023-01-24T19:06:00;3.00;99.90
11320;DHT22;5715;48.234;14.320;2023-01-24T19:08:54;2.90;99.90
11320;DHT22;5715;48.234;14.320;2023-01-24T19:11:50;2.90;99.90
11320;DHT22;5715;48.234;14.320;2023-01-24T19:14:37;2.90;99.90
11320;DHT22;5715;48.234;14.320;2023-01-24T19:17:25;3.00;99.90
11320;DHT22;5715;48.234;14.320;2023-01-24T19:20:13;3.00;99.90
11320;DHT22;5715;48.234;14.320;2023-01-24T19:23:00;3.00;99.90
11320;DHT22;5715;48.234;14.320;2023-01-24T19:25:48;3.00;99.90
11320;DHT22;5715;48.234;14.320;2023-01-24T19:28:35;2.90;99.90
11320;DHT22;5715;48.234;14.320;2023-01-24T19:31:27;3.00;99.90
11320;DHT22;5715;48.234;14.320;2023-01-24T19:34:15;3.00;99.90
11320;DHT22;5715;48.234;14.320;2023-01-24T19:37:03;3.00;99.90
11320;DHT22;5715;48.234;14.320;2023-01-24T19:39:52;3.00;99.90
11320;DHT22;5715;48.234;14.320;2023-01-24T19:42:40;3.00;99.90
11320;DHT22;5715;48.234;14.320;2023-01-24T19:45:28;2.90;99.90
11320;DHT22;5715;48.234;14.320;2023-01-24T19:48:16;3.00;99.90
11320;DHT22;5715;48.234;14.320;2023-01-24T19:51:05;3.00;99.90
11320;DHT22;5715;48.234;14.320;2023-01-24T19:53:54;3.00;99.90
11320;DHT22;5715;48.234;14.320;2023-01-24T19:56:42;3.00;99.90
11320;DHT22;5715;48.234;14.320;2023-01-24T19:59:30;3.00;99.90
11320;DHT22;5715;48.234;14.320;2023-01-24T20:02:18;2.90;99.90
11320;DHT22;5715;48.234;14.320;2023-01-24T20:05:06;2.80;99.90
11320;DHT22;5715;48.234;14.320;2023-01-24T20:07:57;2.80;99.90
11320;DHT22;5715;48.234;14.320;2023-01-24T20:10:45;2.80;99.90
11320;DHT22;5715;48.234;14.320;2023-01-24T20:13:33;2.80;99.90
11320;DHT22;5715;48.234;14.320;2023-01-24T20:16:23;2.80;99.90
11320;DHT22;5715;48.234;14.320;2023-01-24T20:19:12;2.80;99.90
11320;DHT22;5715;48.234;14.320;2023-01-24T20:22:14;2.80;99.90
11320;DHT22;5715;48.234;14.320;2023-01-24T20:25:01;2.80;99.90